Time;durP1;ratioP1;P1;durP2;ratioP2;P2;SDS_P1;SDS_P2;PMS_P1;PMS_P2;Temp;Humidity;BMP_temperature;BMP_pressure;BME280_temperature;BME280_humidity;BME280_pressure;Samples;Min_cycle;Max_cycle;Signal;HPM_P1;HPM_P2
2022/07/24 05:00:44;;;;;;;12.93;12.00;;;23.10;97.20;;;;;;1701056;29;20624;-76
2022/07/24 05:01:35;;;;;;;11.55;10.55;;;23.10;97.20;;;;;;1701111;29;20307;-76
2022/07/24 05:02:27;;;;;;;12.53;11.57;;;23.10;97.20;;;;;;1700725;29;20331;-76
2022/07/24 05:03:18;;;;;;;12.85;11.82;;;23.10;97.20;;;;;;1701031;29;20203;-77
2022/07/24 05:04:10;;;;;;;12.70;11.70;;;23.10;97.20;;;;;;1701050;29;20203;-76
2022/07/24 05:05:01;;;;;;;13.15;11.95;;;23.10;97.20;;;;;;1701047;29;20218;-76
2022/07/24 05:05:52;;;;;;;12.83;11.73;;;23.10;97.20;;;;;;1700922;29;20722;-76
2022/07/24 05:06:46;;;;;;;12.55;11.55;;;23.10;97.20;;;;;;1700729;29;20582;-77
2022/07/24 05:07:38;;;;;;;12.85;11.85;;;23.10;97.20;;;;;;1700994;29;20207;-76
2022/07/24 05:08:28;;;;;;;13.30;12.10;;;23.10;97.20;;;;;;1700940;29;20218;-76
2022/07/24 05:09:20;;;;;;;12.33;11.43;;;23.10;97.20;;;;;;1701009;29;20286;-77
2022/07/24 05:10:11;;;;;;;12.45;11.35;;;23.10;97.20;;;;;;1700919;29;20203;-76
2022/07/24 05:11:03;;;;;;;13.47;12.37;;;23.10;97.20;;;;;;1701036;29;20294;-76
2022/07/24 05:11:54;;;;;;;15.13;12.60;;;23.10;97.20;;;;;;1701075;29;20799;-76
2022/07/24 05:12:45;;;;;;;12.67;11.67;;;23.10;97.20;;;;;;1700950;29;20307;-77
2022/07/24 05:13:36;;;;;;;12.85;11.73;;;23.20;97.20;;;;;;1701023;29;20218;-76
2022/07/24 05:14:28;;;;;;;12.33;11.33;;;23.20;97.20;;;;;;1700927;29;20293;-76
2022/07/24 05:15:19;;;;;;;13.20;12.02;;;23.20;97.20;;;;;;1700928;29;20223;-76
2022/07/24 05:16:12;;;;;;;12.73;11.53;;;23.20;97.20;;;;;;1700868;29;20314;-76
2022/07/24 05:17:02;;;;;;;12.10;11.20;;;23.20;97.20;;;;;;1700676;29;20211;-76
2022/07/24 05:17:54;;;;;;;12.83;11.77;;;23.20;97.20;;;;;;1700943;29;20210;-76
2022/07/24 05:18:45;;;;;;;13.60;11.75;;;23.20;97.20;;;;;;1700568;29;20199;-76
2022/07/24 05:19:37;;;;;;;12.63;11.63;;;23.20;97.20;;;;;;1700970;29;20215;-76
2022/07/24 05:20:28;;;;;;;16.30;12.43;;;23.10;97.20;;;;;;1700859;29;20836;-76
2022/07/24 05:21:20;;;;;;;12.67;11.67;;;23.10;97.20;;;;;;1700947;29;20203;-76
2022/07/24 05:22:11;;;;;;;12.60;11.50;;;23.10;97.20;;;;;;1700969;29;20816;-77
2022/07/24 05:23:02;;;;;;;12.05;10.98;;;23.10;97.20;;;;;;1700932;29;20616;-76
2022/07/24 05:23:53;;;;;;;12.35;11.35;;;23.10;97.20;;;;;;1700868;29;20210;-76
2022/07/24 05:24:45;;;;;;;12.13;11.03;;;23.10;97.20;;;;;;1700898;29;20289;-77
2022/07/24 05:25:36;;;;;;;12.57;11.57;;;23.20;97.20;;;;;;1700849;29;20226;-76
2022/07/24 05:26:28;;;;;;;11.97;11.07;;;23.20;97.20;;;;;;1700872;29;20282;-77
2022/07/24 05:27:18;;;;;;;11.57;10.70;;;23.20;97.20;;;;;;1700633;29;20848;-76
2022/07/24 05:28:10;;;;;;;12.37;11.40;;;23.20;97.20;;;;;;1700893;29;20737;-76
2022/07/24 05:29:02;;;;;;;12.73;11.55;;;23.20;97.20;;;;;;1700887;29;20339;-76
2022/07/24 05:29:54;;;;;;;11.05;10.25;;;23.20;97.20;;;;;;1700977;29;20667;-76
2022/07/24 05:30:45;;;;;;;13.77;12.60;;;23.30;97.20;;;;;;1700755;29;20215;-76
2022/07/24 05:31:38;;;;;;;12.17;11.17;;;23.30;97.20;;;;;;1700965;29;20199;-76
2022/07/24 05:32:29;;;;;;;12.27;11.27;;;23.30;97.20;;;;;;1700889;29;20214;-76
2022/07/24 05:33:20;;;;;;;12.47;11.47;;;23.30;97.20;;;;;;1700847;29;20718;-76
2022/07/24 05:34:11;;;;;;;12.20;11.30;;;23.30;97.20;;;;;;1700907;29;20210;-76
2022/07/24 05:35:04;;;;;;;12.83;11.73;;;23.30;97.20;;;;;;1700567;29;20196;-76
2022/07/24 05:35:54;;;;;;;12.73;11.63;;;23.40;97.20;;;;;;1700593;29;20830;-76
2022/07/24 05:36:46;;;;;;;12.77;11.63;;;23.40;97.20;;;;;;1700692;29;20203;-77
2022/07/24 05:37:37;;;;;;;12.43;11.48;;;23.40;97.20;;;;;;1700974;29;20221;-76
2022/07/24 05:38:29;;;;;;;12.70;11.70;;;23.40;97.20;;;;;;1700842;29;20286;-77
2022/07/24 05:39:19;;;;;;;12.70;11.70;;;23.50;97.20;;;;;;1700853;29;20226;-76
2022/07/24 05:40:12;;;;;;;13.37;12.37;;;23.50;97.20;;;;;;1700878;29;20289;-77
2022/07/24 05:41:03;;;;;;;12.20;11.30;;;23.50;97.20;;;;;;1700799;29;20207;-77
2022/07/24 05:41:55;;;;;;;13.33;12.30;;;23.50;97.20;;;;;;1700819;29;20278;-77
2022/07/24 05:42:45;;;;;;;12.20;11.25;;;23.50;97.20;;;;;;1700784;29;20235;-76
2022/07/24 05:43:37;;;;;;;12.77;11.67;;;23.50;97.20;;;;;;1700876;29;20209;-77
2022/07/24 05:44:28;;;;;;;13.82;12.73;;;23.50;97.20;;;;;;1700742;29;20207;-76
2022/07/24 05:45:20;;;;;;;13.13;12.03;;;23.50;97.20;;;;;;1700833;29;20282;-76
2022/07/24 05:46:11;;;;;;;13.35;12.15;;;23.50;97.20;;;;;;1700810;29;20195;-76
2022/07/24 05:47:04;;;;;;;13.57;12.47;;;23.50;97.20;;;;;;1700515;29;20202;-77
2022/07/24 05:47:55;;;;;;;12.82;11.82;;;23.50;97.20;;;;;;1700715;29;20659;-76
2022/07/24 05:48:46;;;;;;;11.93;10.83;;;23.50;97.20;;;;;;1700802;29;20611;-76
2022/07/24 05:49:37;;;;;;;11.32;10.43;;;23.60;97.20;;;;;;1700774;29;20222;-76
2022/07/24 05:50:29;;;;;;;12.20;11.20;;;23.60;97.20;;;;;;1700704;29;20297;-76
2022/07/24 05:51:20;;;;;;;11.80;10.90;;;23.60;97.20;;;;;;1700505;29;20221;-76
2022/07/24 05:52:12;;;;;;;11.50;10.70;;;23.60;97.20;;;;;;1700760;29;20279;-76
2022/07/24 05:53:02;;;;;;;12.25;11.35;;;23.70;97.20;;;;;;1700759;29;20450;-77
2022/07/24 05:53:54;;;;;;;11.57;10.67;;;23.70;97.20;;;;;;1700541;29;20242;-76
2022/07/24 05:54:45;;;;;;;11.80;10.80;;;23.70;97.20;;;;;;1700718;29;20446;-76
2022/07/24 05:55:37;;;;;;;12.03;11.13;;;23.70;97.20;;;;;;1700816;29;20230;-76
2022/07/24 05:56:27;;;;;;;11.60;10.50;;;23.80;97.20;;;;;;1700509;29;20223;-76
2022/07/24 05:57:19;;;;;;;12.03;10.93;;;23.80;97.20;;;;;;1700540;29;20205;-76
2022/07/24 05:58:10;;;;;;;10.60;9.70;;;23.80;97.20;;;;;;1700712;29;20667;-76
2022/07/24 05:59:02;;;;;;;10.53;9.63;;;23.80;97.20;;;;;;1700810;29;20735;-76
2022/07/24 05:59:52;;;;;;;10.02;9.20;;;23.80;97.20;;;;;;1700774;29;20211;-76
2022/07/24 06:00:45;;;;;;;11.50;10.47;;;23.80;97.20;;;;;;1700677;29;20245;-76
2022/07/24 06:01:35;;;;;;;11.52;10.60;;;23.90;97.20;;;;;;1700797;29;20210;-76
2022/07/24 06:02:28;;;;;;;11.63;10.60;;;23.90;97.20;;;;;;1700703;29;20211;-76
2022/07/24 06:03:19;;;;;;;10.45;9.65;;;23.90;97.20;;;;;;1700746;29;20211;-76
2022/07/24 06:04:11;;;;;;;10.10;9.40;;;23.90;97.20;;;;;;1700706;29;20194;-77
2022/07/24 06:05:02;;;;;;;10.45;9.57;;;23.90;97.20;;;;;;1700565;29;20214;-76
2022/07/24 06:05:54;;;;;;;10.47;9.67;;;24.00;97.20;;;;;;1700261;29;20299;-76
2022/07/24 06:06:45;;;;;;;10.07;9.18;;;24.00;97.20;;;;;;1700404;29;20449;-76
2022/07/24 06:07:36;;;;;;;11.33;10.43;;;24.00;97.20;;;;;;1700750;29;20222;-76
2022/07/24 06:08:27;;;;;;;10.35;9.45;;;24.00;97.20;;;;;;1700606;29;20214;-76
2022/07/24 06:09:19;;;;;;;10.17;9.47;;;24.00;97.20;;;;;;1700778;29;20209;-76
2022/07/24 06:10:11;;;;;;;11.20;10.30;;;24.10;97.20;;;;;;1700670;29;20454;-76
2022/07/24 06:11:02;;;;;;;11.43;10.30;;;24.10;97.20;;;;;;1700598;29;20203;-76
2022/07/24 06:11:53;;;;;;;10.30;9.50;;;24.10;97.20;;;;;;1700695;29;20213;-76
2022/07/24 06:12:45;;;;;;;10.40;9.60;;;24.10;97.20;;;;;;1700758;29;20294;-76
2022/07/24 06:13:35;;;;;;;9.93;9.23;;;24.10;97.20;;;;;;1700689;29;20234;-76
2022/07/24 06:14:27;;;;;;;10.67;9.87;;;24.20;97.20;;;;;;1700631;29;20214;-76
2022/07/24 06:15:18;;;;;;;10.60;9.80;;;24.20;97.20;;;;;;1700770;29;20215;-76
2022/07/24 06:16:10;;;;;;;10.13;9.43;;;24.20;97.20;;;;;;1700578;29;20277;-76
2022/07/24 06:17:01;;;;;;;10.95;10.15;;;24.20;97.20;;;;;;1700456;29;20290;-76
2022/07/24 06:17:54;;;;;;;10.20;9.43;;;24.20;97.20;;;;;;1700608;29;20270;-76
2022/07/24 06:18:45;;;;;;;10.23;9.38;;;24.20;97.20;;;;;;1700672;29;20207;-76
2022/07/24 06:19:37;;;;;;;10.40;9.50;;;24.30;97.20;;;;;;1700707;29;20290;-76
2022/07/24 06:20:27;;;;;;;10.05;9.07;;;24.30;97.20;;;;;;1700596;29;20234;-76
2022/07/24 06:21:19;;;;;;;9.43;8.63;;;24.30;97.20;;;;;;1700713;29;20211;-76
2022/07/24 06:22:10;;;;;;;10.90;10.00;;;24.30;97.20;;;;;;1700444;29;20207;-76
2022/07/24 06:23:02;;;;;;;10.10;9.30;;;24.30;97.20;;;;;;1700705;29;20298;-76
2022/07/24 06:23:52;;;;;;;10.38;9.50;;;24.30;97.20;;;;;;1700650;29;20214;-76
2022/07/24 06:24:44;;;;;;;9.97;9.17;;;24.30;97.20;;;;;;1700705;29;20241;-76
2022/07/24 06:25:35;;;;;;;10.57;9.77;;;24.30;97.20;;;;;;1700573;29;20207;-77
2022/07/24 06:26:26;;;;;;;9.93;9.13;;;24.30;97.20;;;;;;1700393;29;20526;-76
2022/07/24 06:27:17;;;;;;;10.70;9.77;;;24.30;97.20;;;;;;1700479;29;20210;-76
2022/07/24 06:28:09;;;;;;;10.27;9.37;;;24.30;97.20;;;;;;1700549;29;20735;-76
2022/07/24 06:29:00;;;;;;;11.40;10.45;;;24.30;97.20;;;;;;1700615;29;20214;-76
2022/07/24 06:29:51;;;;;;;10.40;9.60;;;24.40;97.20;;;;;;1700672;29;20295;-76
2022/07/24 06:30:42;;;;;;;9.80;9.00;;;24.40;97.20;;;;;;1700481;29;20235;-76
2022/07/24 06:31:34;;;;;;;10.40;9.53;;;24.40;97.20;;;;;;1700716;29;20213;-76
2022/07/24 06:32:25;;;;;;;9.77;8.98;;;24.40;97.20;;;;;;1700551;29;20222;-76
2022/07/24 06:33:18;;;;;;;10.30;9.50;;;24.50;97.20;;;;;;1700667;29;20309;-76
2022/07/24 06:34:09;;;;;;;9.98;9.18;;;24.50;97.20;;;;;;1700624;29;20442;-76
2022/07/24 06:35:01;;;;;;;9.50;8.63;;;24.50;97.20;;;;;;1700652;29;20290;-76
2022/07/24 06:35:52;;;;;;;10.05;9.35;;;24.50;97.20;;;;;;1700528;29;20214;-76
2022/07/24 06:36:43;;;;;;;11.17;10.27;;;24.50;97.20;;;;;;1700230;29;20318;-76
2022/07/24 06:37:34;;;;;;;10.57;9.65;;;24.50;97.20;;;;;;1700715;29;20690;-76
2022/07/24 06:38:26;;;;;;;11.33;10.23;;;24.50;97.20;;;;;;1700255;29;20860;-76
2022/07/24 06:39:17;;;;;;;11.38;10.27;;;24.50;97.20;;;;;;1700531;29;20814;-76
2022/07/24 06:40:10;;;;;;;10.27;9.27;;;24.60;97.20;;;;;;1700522;29;20199;-76
2022/07/24 06:41:01;;;;;;;10.05;9.13;;;24.60;97.20;;;;;;1700594;29;20218;-76
2022/07/24 06:41:53;;;;;;;10.90;9.97;;;24.60;97.20;;;;;;1700651;29;20286;-76
2022/07/24 06:42:45;;;;;;;11.00;10.15;;;24.60;97.20;;;;;;1700646;29;20207;-76
2022/07/24 06:43:37;;;;;;;10.55;9.65;;;24.60;97.20;;;;;;1700754;29;20210;-76
2022/07/24 06:44:28;;;;;;;10.35;9.50;;;24.50;97.20;;;;;;1700601;29;20219;-76
2022/07/24 06:45:20;;;;;;;9.93;9.13;;;24.50;97.20;;;;;;1700705;29;20272;-77
2022/07/24 06:46:11;;;;;;;9.75;9.05;;;24.50;97.20;;;;;;1700561;29;20203;-77
2022/07/24 06:47:02;;;;;;;11.10;10.10;;;24.50;97.20;;;;;;1700344;29;20201;-76
2022/07/24 06:47:53;;;;;;;9.40;8.60;;;24.50;97.20;;;;;;1700500;29;20671;-76
2022/07/24 06:48:46;;;;;;;9.60;8.83;;;24.50;97.20;;;;;;1700598;29;20660;-77
2022/07/24 06:49:37;;;;;;;9.93;9.03;;;24.50;97.20;;;;;;1700650;29;20208;-76
2022/07/24 06:50:29;;;;;;;9.73;8.90;;;24.60;97.20;;;;;;1700553;29;20554;-77
2022/07/24 06:51:20;;;;;;;10.30;9.50;;;24.60;97.20;;;;;;1700681;29;20231;-77
2022/07/24 06:52:11;;;;;;;9.90;9.10;;;24.60;97.20;;;;;;1700634;29;20235;-77
2022/07/24 06:53:02;;;;;;;9.43;8.73;;;24.70;97.20;;;;;;1700613;29;20592;-77
2022/07/24 06:53:54;;;;;;;9.67;8.87;;;24.70;97.20;;;;;;1700623;29;20828;-77
2022/07/24 06:54:45;;;;;;;10.23;9.05;;;24.70;97.20;;;;;;1700187;29;20203;-77
2022/07/24 06:55:37;;;;;;;10.50;9.65;;;24.80;97.20;;;;;;1700650;29;20207;-77
2022/07/24 06:56:27;;;;;;;10.00;9.13;;;24.80;97.20;;;;;;1700655;29;20211;-77
2022/07/24 06:57:19;;;;;;;10.40;9.40;;;24.80;97.20;;;;;;1700339;29;20494;-77
2022/07/24 06:58:10;;;;;;;10.00;9.30;;;24.90;97.20;;;;;;1700484;29;20213;-77
2022/07/24 06:59:02;;;;;;;9.47;8.77;;;24.90;97.20;;;;;;1700625;29;20983;-77
2022/07/24 06:59:56;;;;;;;9.17;8.50;;;24.90;97.20;;;;;;1700573;29;20457;-76
2022/07/24 07:00:48;;;;;;;8.50;7.90;;;24.90;97.20;;;;;;1700527;29;20439;-76
2022/07/24 07:01:39;;;;;;;9.27;8.50;;;25.00;97.20;;;;;;1700511;29;20458;-77
2022/07/24 07:02:30;;;;;;;10.47;8.80;;;25.00;97.20;;;;;;1700531;29;20542;-76
2022/07/24 07:03:21;;;;;;;9.50;8.80;;;25.00;97.20;;;;;;1700568;29;20211;-77
2022/07/24 07:04:14;;;;;;;9.00;8.33;;;25.00;97.20;;;;;;1700532;29;20435;-77
2022/07/24 07:05:07;;;;;;;9.53;8.70;;;25.10;97.20;;;;;;1700477;29;20206;-77
2022/07/24 07:05:58;;;;;;;9.20;8.50;;;25.10;97.20;;;;;;1700583;29;20881;-77
2022/07/24 07:06:49;;;;;;;9.57;8.82;;;25.10;97.20;;;;;;1700350;29;20824;-77
2022/07/24 07:07:42;;;;;;;9.35;8.65;;;25.10;97.20;;;;;;1700549;29;20219;-77
2022/07/24 07:08:33;;;;;;;9.40;8.57;;;25.20;97.20;;;;;;1700398;29;20353;-76
2022/07/24 07:09:25;;;;;;;10.03;8.33;;;25.20;97.20;;;;;;1700524;29;20451;-77
2022/07/24 07:10:15;;;;;;;10.27;9.20;;;25.20;97.20;;;;;;1700488;29;20714;-76
2022/07/24 07:11:07;;;;;;;9.80;9.00;;;25.30;97.20;;;;;;1700255;29;20951;-76
2022/07/24 07:11:58;;;;;;;9.40;8.60;;;25.30;97.20;;;;;;1700457;29;20207;-77
2022/07/24 07:12:50;;;;;;;10.70;9.80;;;25.30;97.20;;;;;;1700461;29;20235;-76
2022/07/24 07:13:40;;;;;;;9.65;8.85;;;25.30;97.20;;;;;;1700515;29;20214;-76
2022/07/24 07:14:32;;;;;;;9.70;8.90;;;25.40;97.20;;;;;;1700463;29;20211;-76
2022/07/24 07:15:23;;;;;;;10.77;9.10;;;25.40;97.20;;;;;;1700228;29;20203;-76
2022/07/24 07:16:15;;;;;;;9.73;8.93;;;25.40;97.20;;;;;;1700451;29;20439;-76
2022/07/24 07:17:06;;;;;;;9.70;8.90;;;25.40;97.20;;;;;;1700120;29;20486;-76
2022/07/24 07:17:58;;;;;;;8.83;8.23;;;25.40;97.20;;;;;;1701478;29;20446;-76
2022/07/24 07:18:49;;;;;;;8.93;8.20;;;25.40;97.20;;;;;;1701619;29;20855;-76
2022/07/24 07:19:42;;;;;;;9.40;8.70;;;25.40;97.20;;;;;;1701733;29;20510;-76
2022/07/24 07:20:33;;;;;;;10.07;9.07;;;25.40;97.20;;;;;;1701642;29;20470;-76
2022/07/24 07:21:24;;;;;;;9.70;8.80;;;25.50;97.20;;;;;;1701654;29;20443;-77
2022/07/24 07:22:15;;;;;;;9.17;8.40;;;25.50;97.20;;;;;;1701663;29;20446;-76
2022/07/24 07:23:07;;;;;;;10.47;9.50;;;25.50;97.20;;;;;;1701708;29;20450;-76
2022/07/24 07:23:58;;;;;;;9.77;8.97;;;25.50;97.20;;;;;;1701638;29;20203;-77
2022/07/24 07:24:50;;;;;;;9.23;8.43;;;25.60;97.20;;;;;;1701569;29;20490;-77
2022/07/24 07:25:40;;;;;;;9.40;8.60;;;25.60;97.20;;;;;;1701631;29;20218;-77
2022/07/24 07:26:32;;;;;;;9.17;8.37;;;25.60;97.20;;;;;;1701682;29;20455;-76
2022/07/24 07:27:23;;;;;;;9.30;8.50;;;25.70;97.20;;;;;;1701640;29;20229;-76
2022/07/24 07:28:15;;;;;;;9.67;8.87;;;25.70;97.20;;;;;;1701136;29;20529;-76
2022/07/24 07:29:05;;;;;;;9.83;8.90;;;25.70;97.20;;;;;;1701637;29;20547;-77
2022/07/24 07:29:57;;;;;;;8.77;8.07;;;25.80;97.20;;;;;;1701548;29;20895;-76
2022/07/24 07:30:48;;;;;;;11.03;10.10;;;25.80;97.20;;;;;;1722560;23;20532;-70
2022/07/24 07:31:40;;;;;;;10.47;9.70;;;25.80;97.20;;;;;;1701590;29;20891;-70
2022/07/24 07:32:31;;;;;;;9.17;8.37;;;25.80;97.20;;;;;;1701657;29;20671;-70
2022/07/24 07:33:23;;;;;;;9.23;8.43;;;25.80;97.20;;;;;;1701704;29;20858;-70
2022/07/24 07:34:13;;;;;;;10.63;9.73;;;25.80;97.20;;;;;;1701544;29;20199;-70
2022/07/24 07:35:07;;;;;;;9.77;9.07;;;25.80;97.20;;;;;;1701643;29;20478;-70
2022/07/24 07:35:59;;;;;;;9.67;8.93;;;25.80;97.20;;;;;;1701525;29;20229;-70
2022/07/24 07:36:50;;;;;;;10.47;9.57;;;25.90;97.20;;;;;;1701180;29;20443;-72
2022/07/24 07:37:44;;;;;;;10.60;9.60;;;25.90;97.20;;;;;;1701530;29;20459;-72
2022/07/24 07:38:37;;;;;;;9.97;9.17;;;25.90;97.20;;;;;;1701535;29;20451;-71
2022/07/24 07:39:28;;;;;;;9.87;9.07;;;25.90;97.20;;;;;;1701520;29;20953;-71
2022/07/24 07:40:20;;;;;;;9.50;8.80;;;25.90;97.20;;;;;;1701511;29;20438;-71
2022/07/24 07:41:11;;;;;;;9.73;8.90;;;26.00;97.20;;;;;;1701571;29;20462;-71
2022/07/24 07:42:03;;;;;;;9.60;8.80;;;26.00;97.20;;;;;;1701529;29;20666;-71
2022/07/24 07:42:54;;;;;;;8.97;8.27;;;26.00;97.20;;;;;;1701455;29;20451;-71
2022/07/24 07:43:46;;;;;;;9.20;8.40;;;26.10;97.20;;;;;;1701471;29;20452;-71
2022/07/24 07:44:37;;;;;;;10.00;9.10;;;26.10;97.20;;;;;;1701225;29;20222;-71
2022/07/24 07:45:29;;;;;;;8.87;8.27;;;26.20;97.20;;;;;;1701598;29;20443;-71
2022/07/24 07:46:20;;;;;;;9.60;8.80;;;26.20;97.20;;;;;;1701581;29;20200;-71
2022/07/24 07:47:12;;;;;;;8.93;8.33;;;26.20;97.20;;;;;;1701461;29;20526;-71
2022/07/24 07:48:03;;;;;;;9.10;8.40;;;26.30;97.20;;;;;;1701436;29;20214;-71
2022/07/24 07:48:55;;;;;;;8.53;7.83;;;26.30;97.20;;;;;;1701609;29;20881;-71
2022/07/24 07:49:46;;;;;;;8.53;7.73;;;26.30;97.20;;;;;;1701463;29;20450;-71
2022/07/24 07:50:39;;;;;;;8.20;7.60;;;26.30;97.20;;;;;;1701528;29;20994;-71
2022/07/24 07:51:30;;;;;;;8.63;7.83;;;26.30;97.20;;;;;;1701431;29;20199;-71
2022/07/24 07:52:22;;;;;;;9.37;8.43;;;26.40;97.20;;;;;;1701398;29;20550;-71
2022/07/24 07:53:12;;;;;;;8.87;8.17;;;26.40;97.20;;;;;;1701525;29;20207;-71
2022/07/24 07:54:04;;;;;;;9.53;8.83;;;26.40;97.20;;;;;;1701455;29;20534;-71
2022/07/24 07:54:55;;;;;;;8.77;8.03;;;26.40;97.20;;;;;;1701457;29;20711;-71
2022/07/24 07:55:51;;;;;;;11.07;8.20;;;26.50;97.20;;;;;;1701486;29;20900;-71
2022/07/24 07:56:41;;;;;;;9.50;8.70;;;26.50;97.20;;;;;;1701285;29;20616;-71
2022/07/24 07:57:33;;;;;;;8.73;7.93;;;26.50;97.20;;;;;;1701460;29;20487;-72
2022/07/24 07:58:26;;;;;;;8.60;8.00;;;26.50;97.20;;;;;;1701307;29;20207;-72
2022/07/24 07:59:17;;;;;;;8.77;7.97;;;26.50;97.20;;;;;;1701548;29;20498;-71
2022/07/24 08:00:09;;;;;;;7.90;7.30;;;26.50;97.20;;;;;;1701497;29;20463;-71
2022/07/24 08:01:01;;;;;;;8.60;7.80;;;26.60;97.20;;;;;;1701334;29;20526;-71
2022/07/24 08:01:52;;;;;;;8.83;8.13;;;26.60;97.20;;;;;;1700894;29;20452;-71
2022/07/24 08:02:43;;;;;;;8.70;8.00;;;26.60;97.20;;;;;;1701412;29;20453;-71
2022/07/24 08:03:34;;;;;;;9.50;8.80;;;26.70;97.20;;;;;;1701416;29;20216;-71
2022/07/24 08:04:26;;;;;;;9.50;8.70;;;26.70;97.20;;;;;;1701428;29;20450;-72
2022/07/24 08:05:17;;;;;;;9.90;8.90;;;26.70;97.20;;;;;;1701622;29;20462;-72
2022/07/24 08:06:10;;;;;;;8.60;7.90;;;26.70;97.20;;;;;;1701425;29;21252;-74
2022/07/24 08:07:01;;;;;;;8.77;8.10;;;26.70;97.20;;;;;;1701137;29;20211;-71
2022/07/24 08:07:53;;;;;;;8.53;7.73;;;26.70;97.20;;;;;;1701297;29;20534;-71
2022/07/24 08:08:43;;;;;;;10.00;8.57;;;26.70;97.20;;;;;;1701280;29;20204;-72
2022/07/24 08:09:37;;;;;;;9.50;8.70;;;26.70;97.20;;;;;;1701318;29;20447;-71
2022/07/24 08:10:28;;;;;;;9.03;8.10;;;26.70;97.20;;;;;;1701323;29;20203;-74
2022/07/24 08:11:19;;;;;;;8.30;7.70;;;26.70;97.20;;;;;;1701435;29;20449;-71
2022/07/24 08:12:10;;;;;;;9.20;8.40;;;26.70;97.20;;;;;;1701420;29;20454;-71
2022/07/24 08:13:02;;;;;;;10.73;8.83;;;26.70;97.20;;;;;;1701507;29;20475;-71
2022/07/24 08:13:53;;;;;;;8.87;8.07;;;26.70;97.20;;;;;;1701324;29;20269;-71
2022/07/24 08:14:45;;;;;;;7.87;7.30;;;26.70;97.20;;;;;;1701288;29;20451;-72
2022/07/24 08:15:35;;;;;;;8.90;8.30;;;26.80;97.20;;;;;;1701293;29;20203;-71
2022/07/24 08:16:27;;;;;;;9.23;8.43;;;26.80;97.20;;;;;;1701299;29;20447;-72
2022/07/24 08:17:18;;;;;;;8.63;7.60;;;26.80;97.20;;;;;;1701188;29;20231;-71
2022/07/24 08:18:11;;;;;;;8.40;7.80;;;26.80;97.20;;;;;;1700997;29;20530;-71
2022/07/24 08:19:02;;;;;;;7.87;7.27;;;26.80;97.20;;;;;;1701354;29;20450;-71
2022/07/24 08:19:54;;;;;;;8.20;7.50;;;26.80;97.20;;;;;;1701317;29;20457;-71
2022/07/24 08:20:44;;;;;;;7.47;6.97;;;26.80;97.20;;;;;;1701276;29;20230;-72
2022/07/24 08:21:38;;;;;;;8.73;8.03;;;26.80;97.20;;;;;;1701309;29;20978;-72
2022/07/24 08:22:28;;;;;;;9.10;8.37;;;26.80;97.20;;;;;;1701306;29;20203;-72
2022/07/24 08:23:20;;;;;;;8.73;8.03;;;26.80;97.20;;;;;;1701299;29;20440;-72
2022/07/24 08:24:11;;;;;;;8.33;7.57;;;26.90;97.20;;;;;;1701364;29;20451;-72
2022/07/24 08:25:03;;;;;;;8.03;7.37;;;26.90;97.20;;;;;;1701351;29;21035;-72
2022/07/24 08:25:54;;;;;;;7.80;7.07;;;26.90;97.20;;;;;;1701406;29;20218;-73
2022/07/24 08:26:46;;;;;;;8.00;7.30;;;26.90;97.20;;;;;;1700847;29;20477;-72
2022/07/24 08:27:37;;;;;;;7.67;6.97;;;26.90;97.20;;;;;;1701248;29;20667;-72
2022/07/24 08:28:29;;;;;;;8.20;7.60;;;26.90;97.20;;;;;;1700940;29;20444;-72
2022/07/24 08:29:20;;;;;;;8.77;8.10;;;26.90;97.20;;;;;;1701229;29;20443;-71
2022/07/24 08:30:12;;;;;;;8.83;8.03;;;27.00;97.20;;;;;;1701336;29;20486;-71
2022/07/24 08:31:03;;;;;;;7.77;7.17;;;27.00;97.20;;;;;;1701051;29;20238;-71
2022/07/24 08:31:55;;;;;;;8.30;7.63;;;27.00;97.20;;;;;;1701378;29;20539;-72
2022/07/24 08:32:46;;;;;;;8.47;7.77;;;27.10;97.20;;;;;;1701172;29;20451;-72
2022/07/24 08:33:38;;;;;;;8.07;7.37;;;27.10;97.20;;;;;;1701227;29;20517;-72
2022/07/24 08:34:29;;;;;;;8.50;7.90;;;27.10;97.20;;;;;;1701029;29;20207;-71
2022/07/24 08:35:21;;;;;;;8.07;7.27;;;27.10;97.20;;;;;;1701220;29;20534;-71
2022/07/24 08:36:11;;;;;;;8.43;7.73;;;27.20;97.20;;;;;;1701154;29;20659;-71
2022/07/24 08:37:04;;;;;;;8.10;7.50;;;27.20;97.20;;;;;;1700861;29;20935;-72
2022/07/24 08:37:55;;;;;;;7.93;7.33;;;27.20;97.20;;;;;;1701116;29;20207;-72
2022/07/24 08:38:47;;;;;;;8.00;7.27;;;27.20;97.20;;;;;;1701238;29;20447;-72
2022/07/24 08:39:38;;;;;;;8.43;7.80;;;27.20;97.20;;;;;;1701226;29;20955;-72
2022/07/24 08:40:35;;;;;;;9.50;8.30;;;27.20;97.20;;;;;;1701201;29;20871;-72
2022/07/24 08:41:32;;;;;;;8.40;7.70;;;27.20;97.20;;;;;;1701264;29;20207;-72
2022/07/24 08:42:24;;;;;;;8.00;7.40;;;27.20;97.20;;;;;;1701270;29;20447;-71
2022/07/24 08:43:14;;;;;;;8.33;7.73;;;27.20;97.20;;;;;;1701511;29;20939;-71
2022/07/24 08:44:07;;;;;;;10.50;8.27;;;27.20;97.20;;;;;;1701295;29;20857;-71
2022/07/24 08:44:57;;;;;;;9.10;8.43;;;27.20;97.20;;;;;;1701206;29;20207;-71
2022/07/24 08:45:55;;;;;;;8.10;7.50;;;27.30;97.20;;;;;;1701243;29;20470;-71
2022/07/24 08:46:46;;;;;;;8.87;8.13;;;27.30;97.20;;;;;;1701100;29;20208;-72
2022/07/24 08:47:40;;;;;;;8.10;7.50;;;27.30;97.20;;;;;;1701301;29;20522;-71
2022/07/24 08:48:31;;;;;;;8.97;8.20;;;27.30;97.20;;;;;;1701286;29;20207;-71
2022/07/24 08:49:23;;;;;;;9.23;8.20;;;27.30;97.20;;;;;;1701135;29;20447;-71
2022/07/24 08:50:15;;;;;;;8.90;8.23;;;27.30;97.20;;;;;;1701159;29;21079;-71
2022/07/24 08:51:07;;;;;;;7.97;7.33;;;27.30;97.20;;;;;;1700826;29;20554;-71
2022/07/24 08:52:00;;;;;;;8.03;7.37;;;27.30;97.20;;;;;;1701244;29;20462;-72
2022/07/24 08:52:53;;;;;;;8.00;7.40;;;27.30;97.20;;;;;;1701195;29;20451;-71
2022/07/24 08:53:44;;;;;;;8.77;8.07;;;27.30;97.20;;;;;;1700960;29;20462;-72
2022/07/24 08:54:37;;;;;;;7.83;7.23;;;27.40;97.20;;;;;;1701172;29;20448;-71
2022/07/24 08:55:28;;;;;;;8.47;7.77;;;27.40;97.20;;;;;;1701180;29;20935;-72
2022/07/24 08:56:20;;;;;;;8.90;8.20;;;27.50;97.20;;;;;;1701052;29;20465;-71
2022/07/24 08:57:11;;;;;;;8.50;7.80;;;27.50;97.20;;;;;;1700784;29;20947;-71
2022/07/24 08:58:03;;;;;;;8.73;7.90;;;27.50;97.20;;;;;;1701049;29;20935;-72
2022/07/24 08:58:54;;;;;;;8.90;8.20;;;27.50;97.20;;;;;;1701213;29;20212;-71
2022/07/24 08:59:45;;;;;;;8.63;7.93;;;27.60;97.20;;;;;;1701082;29;20538;-72
2022/07/24 09:00:36;;;;;;;8.67;7.97;;;27.60;97.20;;;;;;1701122;29;20855;-72
2022/07/24 09:01:28;;;;;;;8.03;7.40;;;27.70;97.20;;;;;;1701055;29;20530;-72
2022/07/24 09:02:19;;;;;;;9.27;8.47;;;27.70;97.20;;;;;;1701027;29;20207;-72
2022/07/24 09:03:12;;;;;;;9.77;9.07;;;27.70;97.20;;;;;;1701213;29;20535;-72
2022/07/24 09:04:03;;;;;;;11.43;10.50;;;27.80;97.20;;;;;;1701072;29;20235;-72
2022/07/24 09:04:59;;;;;;;10.00;9.20;;;27.80;97.20;;;;;;1700951;29;20455;-73
2022/07/24 09:05:55;;;;;;;8.83;8.13;;;27.90;97.20;;;;;;1701028;29;20451;-72
2022/07/24 09:06:58;;;;;;;8.93;8.20;;;28.00;97.20;;;;;;1702617;29;20435;-72
2022/07/24 09:07:49;;;;;;;12.00;11.10;;;28.10;97.20;;;;;;1702528;29;20459;-74
2022/07/24 09:08:44;;;;;;;8.40;7.57;;;28.10;97.20;;;;;;1701859;29;20546;-73
2022/07/24 09:09:36;;;;;;;9.87;7.97;;;28.20;97.20;;;;;;1702171;29;20477;-74
2022/07/24 09:10:32;;;;;;;11.63;10.63;;;28.20;97.20;;;;;;1700349;29;20443;-74
2022/07/24 09:11:22;;;;;;;9.67;8.97;;;28.20;97.20;;;;;;1701180;29;20439;-73
2022/07/24 09:12:16;;;;;;;10.07;9.20;;;28.20;97.20;;;;;;1701052;29;20439;-74
2022/07/24 09:13:14;;;;;;;10.10;9.40;;;28.30;97.20;;;;;;1701091;29;20206;-73
2022/07/24 09:15:17;;;;;;;9.00;8.30;;;28.40;97.20;;;;;;1701057;29;20435;-73
2022/07/24 09:16:22;;;;;;;8.50;7.80;;;28.40;97.20;;;;;;1700950;29;20450;-73
2022/07/24 09:17:15;;;;;;;8.07;7.47;;;28.50;97.20;;;;;;1700733;29;21199;-73
2022/07/24 09:18:06;;;;;;;8.97;8.13;;;28.50;97.20;;;;;;1700792;29;20510;-73
2022/07/24 09:19:05;;;;;;;8.80;8.03;;;28.50;97.20;;;;;;1700881;29;20487;-73
2022/07/24 09:19:58;;;;;;;8.97;8.17;;;28.60;97.20;;;;;;1700992;29;20804;-73
2022/07/24 09:20:50;;;;;;;8.87;8.17;;;28.60;97.20;;;;;;1700853;29;20986;-73
2022/07/24 09:21:42;;;;;;;8.70;8.00;;;28.60;97.20;;;;;;1700880;29;20462;-73
2022/07/24 09:22:37;;;;;;;10.60;9.80;;;28.70;97.20;;;;;;1700967;29;20923;-73
2022/07/24 09:23:28;;;;;;;9.03;8.33;;;28.70;97.20;;;;;;1700914;29;20455;-73
2022/07/24 09:24:23;;;;;;;11.47;10.57;;;28.70;97.20;;;;;;1700761;29;20507;-74
2022/07/24 09:25:16;;;;;;;9.90;9.10;;;28.80;97.20;;;;;;1699658;29;20844;-74
2022/07/24 09:26:08;;;;;;;7.63;7.07;;;28.80;97.20;;;;;;1694904;29;20463;-73
2022/07/24 09:26:59;;;;;;;8.20;7.60;;;28.90;97.20;;;;;;1696382;29;20832;-73
2022/07/24 09:27:52;;;;;;;8.80;8.10;;;28.90;97.20;;;;;;1699551;29;20829;-73